Time;durP1;ratioP1;P1;durP2;ratioP2;P2;SDS_P1;SDS_P2;PMS_P1;PMS_P2;Temp;Humidity;BMP_temperature;BMP_pressure;BME280_temperature;BME280_humidity;BME280_pressure;Samples;Min_cycle;Max_cycle;Signal;HPM_P1;HPM_P2
2024/01/03 00:01:04;;;;;;;0.10;0.10;;;12.60;99.90;;;;;;5054795;28;20205;-63
2024/01/03 00:03:32;;;;;;;0.77;0.23;;;12.70;99.90;;;;;;5054605;28;20205;-62
2024/01/03 00:06:00;;;;;;;0.30;0.20;;;12.80;99.90;;;;;;5054566;28;20600;-63
2024/01/03 00:08:30;;;;;;;0.73;0.20;;;12.80;99.90;;;;;;5054715;28;20276;-63
2024/01/03 00:10:58;;;;;;;0.20;0.20;;;12.70;99.90;;;;;;5054645;28;20213;-64
2024/01/03 00:14:11;;;;;;;0.10;0.10;;;12.70;99.90;;;;;;5054521;28;20206;-62
2024/01/03 00:16:39;;;;;;;0.47;0.30;;;12.70;99.90;;;;;;5014750;28;20205;-62
2024/01/03 00:19:11;;;;;;;0.20;0.10;;;12.60;99.90;;;;;;5054551;28;20271;-64
2024/01/03 00:21:38;;;;;;;0.57;0.30;;;12.70;99.90;;;;;;5054295;28;20675;-63
2024/01/03 00:24:11;;;;;;;1.37;0.30;;;12.70;99.90;;;;;;5054533;28;20225;-62
2024/01/03 00:26:40;;;;;;;0.63;0.10;;;12.60;99.90;;;;;;5054540;28;20201;-63
2024/01/03 00:29:33;;;;;;;1.27;0.20;;;12.70;99.90;;;;;;5038373;28;20217;-62
2024/01/03 00:32:04;;;;;;;0.43;0.40;;;12.60;99.90;;;;;;5054056;28;20210;-63
2024/01/03 00:34:39;;;;;;;0.83;0.40;;;12.60;99.90;;;;;;5054162;28;20226;-63
2024/01/03 00:37:23;;;;;;;0.63;0.30;;;12.50;99.90;;;;;;5054150;28;20561;-63
2024/01/03 00:39:52;;;;;;;0.33;0.30;;;12.40;99.90;;;;;;5054146;28;20746;-63
2024/01/03 00:42:19;;;;;;;1.13;0.40;;;12.30;99.90;;;;;;5053890;28;20220;-63
2024/01/03 00:44:45;;;;;;;0.90;0.40;;;12.30;99.90;;;;;;5054070;28;20267;-62
2024/01/03 00:47:13;;;;;;;0.87;0.37;;;12.20;99.90;;;;;;5054095;28;20209;-62
2024/01/03 00:49:40;;;;;;;0.90;0.70;;;12.30;99.90;;;;;;5053959;28;20229;-63
2024/01/03 00:52:09;;;;;;;1.23;0.30;;;12.20;99.90;;;;;;5037314;28;20604;-62
2024/01/03 00:54:37;;;;;;;1.70;0.40;;;12.20;99.90;;;;;;5053356;28;20244;-63
2024/01/03 00:57:06;;;;;;;0.90;0.37;;;12.10;99.90;;;;;;5053750;28;20247;-63
2024/01/03 00:59:35;;;;;;;1.00;0.40;;;12.10;99.90;;;;;;5053787;28;20218;-63
2024/01/03 01:02:03;;;;;;;1.63;0.53;;;12.10;99.90;;;;;;5053528;28;20202;-63
2024/01/03 01:04:31;;;;;;;1.17;0.50;;;12.00;99.90;;;;;;5053481;28;20308;-62
2024/01/03 01:06:58;;;;;;;1.50;0.50;;;11.90;99.90;;;;;;5053684;28;20201;-63
2024/01/03 01:09:25;;;;;;;2.13;0.60;;;11.90;99.90;;;;;;5053681;28;20209;-63
2024/01/03 01:11:51;;;;;;;1.10;0.40;;;11.80;99.90;;;;;;5053531;28;20205;-64
2024/01/03 01:14:19;;;;;;;1.40;0.50;;;11.70;99.90;;;;;;5053467;28;20225;-62
2024/01/03 01:16:46;;;;;;;1.70;0.80;;;11.80;99.90;;;;;;5053254;28;20636;-62
2024/01/03 01:19:13;;;;;;;3.13;0.70;;;11.90;99.90;;;;;;5053481;28;20221;-63
2024/01/03 01:21:41;;;;;;;1.87;0.73;;;11.90;99.90;;;;;;5053638;28;20205;-63
2024/01/03 01:24:08;;;;;;;2.43;0.60;;;12.00;99.90;;;;;;5052957;28;20715;-63
2024/01/03 01:26:36;;;;;;;1.73;0.57;;;12.10;99.90;;;;;;5053360;28;20198;-63
2024/01/03 01:29:02;;;;;;;3.20;1.10;;;12.20;99.90;;;;;;5053317;28;20702;-62
2024/01/03 01:31:30;;;;;;;2.07;0.63;;;12.10;99.90;;;;;;5053218;28;20257;-63
2024/01/03 01:33:57;;;;;;;2.03;0.70;;;12.10;99.90;;;;;;5052913;28;20552;-62
2024/01/03 01:36:24;;;;;;;1.67;0.50;;;12.10;99.90;;;;;;5053074;28;20225;-63
2024/01/03 01:38:50;;;;;;;0.83;0.60;;;12.20;99.90;;;;;;5053164;28;20230;-63
2024/01/03 01:41:18;;;;;;;2.87;0.60;;;12.20;99.90;;;;;;5052870;28;20205;-63
2024/01/03 01:43:45;;;;;;;0.83;0.50;;;12.30;99.90;;;;;;5052395;28;20201;-62
2024/01/03 01:46:12;;;;;;;1.80;0.60;;;12.30;99.90;;;;;;5052901;28;20714;-63
2024/01/03 01:48:41;;;;;;;1.27;0.40;;;12.40;99.90;;;;;;5052715;28;20201;-62
2024/01/03 01:51:09;;;;;;;1.60;0.70;;;12.30;99.90;;;;;;5052400;28;20206;-63
2024/01/03 01:53:36;;;;;;;2.70;0.50;;;12.40;99.90;;;;;;5052560;28;20209;-63
2024/01/03 01:56:03;;;;;;;2.80;0.70;;;12.40;99.90;;;;;;5052729;28;20233;-62
2024/01/03 01:58:30;;;;;;;1.63;0.80;;;12.50;99.90;;;;;;5052546;28;20228;-63
2024/01/03 02:00:58;;;;;;;2.03;0.70;;;12.50;99.90;;;;;;5052549;28;20652;-62
2024/01/03 02:03:25;;;;;;;2.20;0.90;;;12.50;99.90;;;;;;5052793;28;20275;-63
2024/01/03 02:05:53;;;;;;;2.13;0.67;;;12.50;99.90;;;;;;5052359;28;20275;-63
2024/01/03 02:08:21;;;;;;;2.27;0.63;;;12.50;99.90;;;;;;5051988;28;20267;-63
2024/01/03 02:10:47;;;;;;;1.77;0.60;;;12.50;99.90;;;;;;5052473;28;20304;-63
2024/01/03 02:13:14;;;;;;;2.40;0.77;;;12.60;99.90;;;;;;5052309;28;20213;-63
2024/01/03 02:15:41;;;;;;;1.57;0.57;;;12.50;99.90;;;;;;5052290;28;20264;-63
2024/01/03 02:18:09;;;;;;;3.03;0.70;;;12.70;99.90;;;;;;5051923;28;20581;-63
2024/01/03 02:20:37;;;;;;;2.20;0.70;;;12.50;99.90;;;;;;5052296;28;20201;-63
2024/01/03 02:23:05;;;;;;;1.63;0.60;;;12.40;99.90;;;;;;5051908;28;20633;-63
2024/01/03 02:25:32;;;;;;;0.70;0.40;;;12.30;99.90;;;;;;5051960;28;20316;-63
2024/01/03 02:27:59;;;;;;;1.07;0.40;;;12.10;99.90;;;;;;5052006;28;20577;-63
2024/01/03 02:30:25;;;;;;;1.27;0.50;;;12.00;99.90;;;;;;5052072;28;20202;-62
2024/01/03 02:32:52;;;;;;;1.20;0.50;;;11.80;99.90;;;;;;5052020;28;20209;-63
2024/01/03 02:35:19;;;;;;;0.83;0.40;;;11.70;99.90;;;;;;5051588;28;20730;-63
2024/01/03 02:37:45;;;;;;;0.70;0.40;;;11.50;99.90;;;;;;5052131;28;20271;-61
2024/01/03 02:40:14;;;;;;;1.73;0.30;;;11.50;99.90;;;;;;5051928;28;20639;-63
2024/01/03 02:42:40;;;;;;;2.63;0.60;;;11.50;99.90;;;;;;5051522;28;20209;-63
2024/01/03 02:45:08;;;;;;;2.90;0.63;;;11.30;99.90;;;;;;5051415;28;20627;-63
2024/01/03 02:47:35;;;;;;;1.17;0.43;;;11.20;99.90;;;;;;5051796;28;20206;-63
2024/01/03 02:50:01;;;;;;;1.67;0.70;;;11.20;99.90;;;;;;5051674;28;20691;-63
2024/01/03 02:52:28;;;;;;;1.70;0.60;;;11.10;99.90;;;;;;5051552;28;20201;-62
2024/01/03 02:54:55;;;;;;;1.60;0.40;;;11.10;99.90;;;;;;5051535;28;20233;-62
2024/01/03 02:57:24;;;;;;;0.60;0.20;;;11.20;99.90;;;;;;5051775;28;20208;-62
2024/01/03 02:59:51;;;;;;;1.40;0.50;;;11.30;99.90;;;;;;5051359;28;20218;-61
2024/01/03 03:02:17;;;;;;;0.23;0.20;;;11.50;99.90;;;;;;5051600;28;20288;-61
2024/01/03 03:04:44;;;;;;;1.40;0.37;;;11.50;99.90;;;;;;5051516;28;20237;-62
2024/01/03 03:07:11;;;;;;;0.73;0.20;;;11.50;99.90;;;;;;5051564;28;20205;-62
2024/01/03 03:09:38;;;;;;;0.50;0.13;;;11.40;99.90;;;;;;5051387;28;20201;-61
2024/01/03 03:12:05;;;;;;;0.23;0.20;;;11.30;99.90;;;;;;5050965;28;20205;-61
2024/01/03 03:14:33;;;;;;;0.10;0.10;;;11.10;99.90;;;;;;5051245;28;20218;-62
2024/01/03 03:17:00;;;;;;;2.10;0.37;;;11.00;99.90;;;;;;5051420;28;20680;-62
2024/01/03 03:19:26;;;;;;;0.50;0.30;;;11.10;99.90;;;;;;5051262;28;20230;-62
2024/01/03 03:21:53;;;;;;;0.90;0.10;;;11.10;99.90;;;;;;5051005;28;20205;-61
2024/01/03 03:24:20;;;;;;;0.97;0.30;;;11.10;99.90;;;;;;5051142;28;20225;-61
2024/01/03 03:26:47;;;;;;;0.23;0.10;;;11.10;99.90;;;;;;5051080;28;20209;-61
2024/01/03 03:29:14;;;;;;;0.80;0.20;;;11.00;99.90;;;;;;5035451;28;20738;-61
2024/01/03 03:31:42;;;;;;;1.80;0.10;;;10.90;99.90;;;;;;5050961;28;20620;-62
2024/01/03 03:34:09;;;;;;;0.57;0.20;;;10.90;99.90;;;;;;5050787;28;20595;-62
2024/01/03 03:36:35;;;;;;;0.47;0.40;;;10.80;99.90;;;;;;5051206;28;20201;-62
2024/01/03 03:39:02;;;;;;;0.30;0.20;;;10.90;99.90;;;;;;5051361;28;20593;-62
2024/01/03 03:41:29;;;;;;;1.17;0.40;;;10.90;99.90;;;;;;5050903;28;20201;-61
2024/01/03 03:43:58;;;;;;;1.40;0.20;;;10.80;99.90;;;;;;5050477;28;20209;-62
2024/01/03 03:46:24;;;;;;;0.60;0.17;;;10.70;99.90;;;;;;5051166;28;20201;-61
2024/01/03 03:48:52;;;;;;;1.47;0.40;;;10.80;99.90;;;;;;5050720;28;20213;-61
2024/01/03 03:51:19;;;;;;;0.77;0.30;;;10.70;99.90;;;;;;5050851;28;20672;-61
2024/01/03 03:53:46;;;;;;;1.47;0.37;;;10.80;99.90;;;;;;5050585;28;20212;-62
2024/01/03 03:56:21;;;;;;;0.20;0.20;;;10.70;99.90;;;;;;5034361;28;20205;-61
2024/01/03 03:58:48;;;;;;;0.97;0.40;;;10.60;99.90;;;;;;5050893;28;20216;-61
2024/01/03 04:01:15;;;;;;;0.40;0.30;;;10.60;99.90;;;;;;5051003;28;20256;-61
2024/01/03 04:03:42;;;;;;;1.33;0.40;;;10.60;99.90;;;;;;5050620;28;20205;-62
2024/01/03 04:06:10;;;;;;;0.57;0.40;;;10.50;99.90;;;;;;5051099;28;20263;-61
2024/01/03 04:08:36;;;;;;;0.30;0.20;;;10.50;99.90;;;;;;5050612;28;20205;-61
2024/01/03 04:11:03;;;;;;;0.60;0.40;;;10.50;99.90;;;;;;5050659;28;20267;-62
2024/01/03 04:13:31;;;;;;;1.73;0.50;;;10.40;99.90;;;;;;5050701;28;20206;-61
2024/01/03 04:15:57;;;;;;;0.97;0.70;;;10.40;99.90;;;;;;5050365;28;20868;-62
2024/01/03 04:18:24;;;;;;;0.40;0.30;;;10.50;99.90;;;;;;5050625;28;20621;-61
2024/01/03 04:20:50;;;;;;;1.07;0.43;;;10.40;99.90;;;;;;5050515;28;20348;-61
2024/01/03 04:23:18;;;;;;;1.10;0.50;;;10.50;99.90;;;;;;5050253;28;20202;-61
2024/01/03 04:25:46;;;;;;;0.90;0.50;;;10.50;99.90;;;;;;5050531;28;20229;-61
2024/01/03 04:28:13;;;;;;;2.80;0.50;;;10.50;99.90;;;;;;5050339;28;20271;-62
2024/01/03 04:30:39;;;;;;;1.47;0.80;;;10.40;99.90;;;;;;5052659;28;20743;-61
2024/01/03 04:33:06;;;;;;;0.80;0.27;;;10.40;99.90;;;;;;5053817;28;20228;-61
2024/01/03 04:35:33;;;;;;;2.87;0.87;;;10.30;99.90;;;;;;5054016;28;20221;-61
2024/01/03 04:38:02;;;;;;;2.47;0.53;;;10.30;99.90;;;;;;5054466;28;20297;-62
2024/01/03 04:40:30;;;;;;;1.80;0.57;;;10.20;99.90;;;;;;5054286;28;20306;-61
2024/01/03 04:42:58;;;;;;;1.30;0.57;;;10.30;99.90;;;;;;5053972;28;20213;-61
2024/01/03 04:45:25;;;;;;;2.00;0.50;;;10.30;99.90;;;;;;5053933;28;20221;-61
2024/01/03 04:47:51;;;;;;;1.57;0.60;;;10.20;99.90;;;;;;5053857;28;20217;-61
2024/01/03 04:50:18;;;;;;;3.07;0.70;;;10.30;99.90;;;;;;5053788;28;20671;-61
2024/01/03 04:52:45;;;;;;;2.50;0.70;;;10.30;99.90;;;;;;5053705;28;20672;-61
2024/01/03 04:55:11;;;;;;;1.00;0.50;;;10.20;99.90;;;;;;5053706;28;20225;-61
2024/01/03 04:57:39;;;;;;;1.67;0.70;;;10.10;99.90;;;;;;5054081;28;20213;-61
2024/01/03 05:00:07;;;;;;;1.23;0.43;;;10.20;99.90;;;;;;5053671;28;20226;-61
2024/01/03 05:02:35;;;;;;;2.90;0.70;;;10.20;99.90;;;;;;5053565;28;20197;-61
2024/01/03 05:05:02;;;;;;;3.73;0.80;;;10.20;99.90;;;;;;5053695;28;20233;-61
2024/01/03 05:07:29;;;;;;;5.23;2.57;;;10.30;99.90;;;;;;5054147;28;20209;-61
2024/01/03 05:09:56;;;;;;;6.00;2.80;;;10.40;99.90;;;;;;5053689;28;20682;-61
2024/01/03 05:12:23;;;;;;;5.13;1.87;;;10.50;99.90;;;;;;5053565;28;20216;-61
2024/01/03 05:14:51;;;;;;;3.60;0.80;;;10.80;99.90;;;;;;5053649;28;20351;-61
2024/01/03 05:17:17;;;;;;;3.27;0.90;;;11.00;99.90;;;;;;5038027;28;20320;-61
2024/01/03 05:19:45;;;;;;;3.27;0.87;;;11.10;99.90;;;;;;5053681;28;20221;-61
2024/01/03 05:22:11;;;;;;;3.07;0.90;;;11.10;99.90;;;;;;5053104;28;20224;-61
2024/01/03 05:24:38;;;;;;;3.43;1.00;;;11.10;99.90;;;;;;5053553;28;20221;-60
2024/01/03 05:27:05;;;;;;;3.33;1.03;;;11.10;99.90;;;;;;5053486;28;20205;-60
2024/01/03 05:29:32;;;;;;;2.77;0.83;;;11.10;99.90;;;;;;5053554;28;20205;-60
2024/01/03 05:32:00;;;;;;;4.60;0.90;;;11.10;99.90;;;;;;5053061;28;20240;-61
2024/01/03 05:34:26;;;;;;;3.03;1.00;;;11.10;99.90;;;;;;5053447;28;20217;-61
2024/01/03 05:36:53;;;;;;;3.80;1.33;;;11.10;99.90;;;;;;5053255;28;20201;-61
2024/01/03 05:39:20;;;;;;;3.87;1.10;;;11.10;99.90;;;;;;5053288;28;20206;-61
2024/01/03 05:41:46;;;;;;;3.10;1.03;;;11.00;99.90;;;;;;5051789;28;20206;-61
2024/01/03 05:44:13;;;;;;;2.63;1.30;;;11.00;99.90;;;;;;5053024;28;20245;-61
2024/01/03 05:46:42;;;;;;;2.00;0.87;;;10.90;99.90;;;;;;5053005;28;20304;-61
2024/01/03 05:49:10;;;;;;;3.97;1.10;;;10.90;99.90;;;;;;5053032;28;20237;-61
2024/01/03 05:51:36;;;;;;;3.40;1.00;;;10.90;99.90;;;;;;5053125;28;20340;-61
2024/01/03 05:54:03;;;;;;;2.83;0.90;;;11.00;99.90;;;;;;5052402;28;20229;-61
2024/01/03 05:56:30;;;;;;;5.07;1.20;;;11.10;99.90;;;;;;5052955;28;20255;-61
2024/01/03 05:58:57;;;;;;;2.33;1.10;;;11.30;99.90;;;;;;5052534;28;20206;-61
2024/01/03 06:01:23;;;;;;;3.10;1.30;;;11.40;99.90;;;;;;5052598;28;20232;-62
2024/01/03 06:03:50;;;;;;;4.83;1.33;;;11.40;99.90;;;;;;5052214;28;20209;-62
2024/01/03 06:06:18;;;;;;;6.27;1.50;;;11.40;99.90;;;;;;5052741;28;20300;-61
2024/01/03 06:08:46;;;;;;;2.50;0.93;;;11.50;99.90;;;;;;5052828;28;20211;-62
2024/01/03 06:11:13;;;;;;;3.30;0.97;;;11.50;99.90;;;;;;5052335;28;20210;-61
2024/01/03 06:13:40;;;;;;;2.90;0.90;;;11.60;99.90;;;;;;5051992;28;20283;-61
2024/01/03 06:16:09;;;;;;;2.60;0.93;;;11.80;99.90;;;;;;5052396;28;20582;-61
2024/01/03 06:18:36;;;;;;;2.53;0.60;;;11.80;99.90;;;;;;5052264;28;20202;-62
2024/01/03 06:21:03;;;;;;;4.37;1.13;;;11.90;99.90;;;;;;5052201;28;20232;-61
2024/01/03 06:23:31;;;;;;;4.30;1.03;;;11.90;99.90;;;;;;5052178;28;20247;-61
2024/01/03 06:25:58;;;;;;;3.03;1.30;;;12.00;99.90;;;;;;5051823;28;20229;-61
2024/01/03 06:28:24;;;;;;;4.20;1.20;;;12.00;99.90;;;;;;5052112;28;20206;-62
2024/01/03 06:30:51;;;;;;;2.30;0.83;;;12.00;99.90;;;;;;5052333;28;20206;-61
2024/01/03 06:33:18;;;;;;;2.80;1.03;;;12.20;99.90;;;;;;5051930;28;20239;-61
2024/01/03 06:35:44;;;;;;;5.03;1.10;;;12.20;99.90;;;;;;5052061;28;20232;-61
2024/01/03 06:38:11;;;;;;;3.27;1.00;;;12.30;99.90;;;;;;5051892;28;20209;-62
2024/01/03 06:40:39;;;;;;;1.80;0.83;;;12.30;99.90;;;;;;5051742;28;20233;-61
2024/01/03 06:43:06;;;;;;;4.23;0.80;;;12.30;99.90;;;;;;5051501;28;20209;-61
2024/01/03 06:45:33;;;;;;;3.67;1.10;;;12.30;99.90;;;;;;5051716;28;20217;-61
2024/01/03 06:47:59;;;;;;;5.13;2.97;;;12.40;99.90;;;;;;5051628;28;20213;-61
2024/01/03 06:50:26;;;;;;;1.57;0.83;;;12.40;99.90;;;;;;5051696;28;20194;-61
2024/01/03 06:52:53;;;;;;;3.50;1.10;;;12.30;99.90;;;;;;5051264;28;20718;-61
2024/01/03 06:55:20;;;;;;;3.10;1.53;;;12.30;99.90;;;;;;5051310;28;20766;-60
2024/01/03 06:57:50;;;;;;;3.57;1.50;;;12.30;99.90;;;;;;5051767;28;20305;-61
2024/01/03 07:00:17;;;;;;;3.03;1.53;;;12.40;99.90;;;;;;5051198;28;20222;-61
2024/01/03 07:02:44;;;;;;;4.07;1.33;;;12.40;99.90;;;;;;5051380;28;20201;-60
2024/01/03 07:05:11;;;;;;;8.33;5.43;;;12.40;99.90;;;;;;5051252;28;20222;-60
2024/01/03 07:07:37;;;;;;;5.17;1.90;;;12.40;99.90;;;;;;5051314;28;20209;-60
2024/01/03 07:10:05;;;;;;;3.70;1.50;;;12.40;99.90;;;;;;5051012;28;20205;-60
2024/01/03 07:12:32;;;;;;;4.73;1.50;;;12.40;99.90;;;;;;5051202;28;20205;-60
2024/01/03 07:15:00;;;;;;;2.37;0.73;;;12.40;99.90;;;;;;5050780;28;20781;-61
2024/01/03 07:17:26;;;;;;;2.40;0.77;;;12.40;99.90;;;;;;5051278;28;20198;-61
2024/01/03 07:19:53;;;;;;;2.87;1.27;;;12.30;99.90;;;;;;5050893;28;20210;-61
2024/01/03 07:22:20;;;;;;;3.63;1.10;;;12.40;99.90;;;;;;5034782;28;20201;-61
2024/01/03 07:24:47;;;;;;;4.47;1.30;;;12.30;99.90;;;;;;5050970;28;20236;-61
2024/01/03 07:27:14;;;;;;;4.13;1.63;;;12.30;99.90;;;;;;5051146;28;20209;-60
2024/01/03 07:29:41;;;;;;;3.87;1.33;;;12.30;99.90;;;;;;5051130;28;20407;-61
2024/01/03 07:32:10;;;;;;;2.00;0.93;;;12.40;99.90;;;;;;5050864;28;20285;-61
2024/01/03 07:34:36;;;;;;;4.27;1.00;;;12.40;99.90;;;;;;5051049;28;20226;-61
2024/01/03 07:37:03;;;;;;;2.93;1.43;;;12.40;99.90;;;;;;5051052;28;20212;-60
2024/01/03 07:39:30;;;;;;;3.20;0.83;;;12.40;99.90;;;;;;5051143;28;20205;-60
2024/01/03 07:41:56;;;;;;;3.37;0.90;;;12.50;99.90;;;;;;5050522;28;20230;-61
2024/01/03 07:44:23;;;;;;;3.13;1.60;;;12.60;99.90;;;;;;5050660;28;20229;-61
2024/01/03 07:46:50;;;;;;;2.27;1.00;;;12.60;99.90;;;;;;5050911;28;20206;-60
2024/01/03 07:49:18;;;;;;;1.83;0.77;;;12.60;99.90;;;;;;5050874;28;20205;-60
2024/01/03 07:51:48;;;;;;;1.97;0.90;;;12.50;99.90;;;;;;5051164;28;20210;-61
2024/01/03 07:54:14;;;;;;;2.20;0.80;;;12.50;99.90;;;;;;5050647;28;20229;-60
2024/01/03 07:56:41;;;;;;;1.53;0.50;;;12.40;99.90;;;;;;5050854;28;20215;-61
2024/01/03 07:59:08;;;;;;;1.40;0.50;;;12.40;99.90;;;;;;5050679;28;20263;-60
2024/01/03 08:01:35;;;;;;;4.70;1.13;;;12.40;99.90;;;;;;5050825;28;20222;-60
2024/01/03 08:04:04;;;;;;;5.57;1.67;;;12.40;99.90;;;;;;5050056;28;20636;-61
2024/01/03 08:06:32;;;;;;;2.67;1.37;;;12.50;99.90;;;;;;5054440;28;20208;-60
2024/01/03 08:08:59;;;;;;;2.73;0.87;;;12.60;99.90;;;;;;5054784;28;20563;-61
2024/01/03 08:11:26;;;;;;;5.90;0.87;;;12.60;99.90;;;;;;5054529;28;20228;-62
2024/01/03 08:13:53;;;;;;;3.43;1.03;;;12.50;99.90;;;;;;5054322;28;20224;-61
2024/01/03 08:16:19;;;;;;;3.17;1.00;;;12.50;99.90;;;;;;5054467;28;20205;-61
2024/01/03 08:18:46;;;;;;;2.50;0.70;;;12.60;99.90;;;;;;5054472;28;20209;-61
2024/01/03 08:21:14;;;;;;;1.10;0.60;;;12.60;99.90;;;;;;5054177;28;20711;-62
2024/01/03 08:23:42;;;;;;;1.53;0.50;;;12.60;99.90;;;;;;5054368;28;20206;-61
2024/01/03 08:26:09;;;;;;;1.80;0.80;;;12.70;99.90;;;;;;5054235;28;20210;-61
2024/01/03 08:28:37;;;;;;;2.73;0.93;;;12.80;99.90;;;;;;5054440;28;20202;-61
2024/01/03 08:31:04;;;;;;;3.97;0.90;;;13.00;99.90;;;;;;5054464;28;20289;-62
2024/01/03 08:33:31;;;;;;;3.00;1.03;;;13.00;99.90;;;;;;5054108;28;20296;-62
2024/01/03 08:35:57;;;;;;;1.17;0.73;;;13.10;99.90;;;;;;5054344;28;20229;-62
2024/01/03 08:38:24;;;;;;;2.90;0.80;;;13.20;99.90;;;;;;5054335;28;20209;-62
2024/01/03 08:40:52;;;;;;;1.10;0.70;;;13.20;99.90;;;;;;5054039;28;20225;-61
2024/01/03 08:43:19;;;;;;;1.83;0.73;;;13.20;99.90;;;;;;5053325;28;20206;-61
2024/01/03 08:45:45;;;;;;;4.07;0.80;;;13.20;99.90;;;;;;5053415;28;20308;-61
2024/01/03 08:48:12;;;;;;;3.57;0.90;;;13.20;99.90;;;;;;5054173;28;20217;-61
2024/01/03 08:50:39;;;;;;;2.93;1.23;;;13.20;99.90;;;;;;5053833;28;20217;-61
2024/01/03 08:53:06;;;;;;;2.13;0.73;;;13.20;99.90;;;;;;5053611;28;20239;-61
2024/01/03 08:55:33;;;;;;;2.10;1.27;;;13.10;99.90;;;;;;5053599;28;20218;-61
2024/01/03 08:58:02;;;;;;;5.50;0.70;;;13.20;99.90;;;;;;5053574;28;20212;-59
2024/01/03 09:00:28;;;;;;;2.67;0.90;;;13.20;99.90;;;;;;5053450;28;20205;-58
2024/01/03 09:03:00;;;;;;;2.43;0.70;;;13.10;99.90;;;;;;5053480;28;20209;-58
2024/01/03 09:05:26;;;;;;;3.57;0.80;;;13.00;99.90;;;;;;5038344;28;20229;-58
2024/01/03 09:07:53;;;;;;;1.97;1.03;;;13.10;99.90;;;;;;5053379;28;20698;-58
2024/01/03 09:10:20;;;;;;;5.93;1.30;;;13.10;99.90;;;;;;5053258;28;20216;-59
2024/01/03 09:12:47;;;;;;;3.87;1.90;;;13.10;99.90;;;;;;5053489;28;20205;-59
2024/01/03 09:15:15;;;;;;;3.93;0.90;;;13.10;99.90;;;;;;5053067;28;20229;-59
2024/01/03 09:17:43;;;;;;;3.67;1.10;;;13.20;99.90;;;;;;5053471;28;20209;-59
2024/01/03 09:20:10;;;;;;;2.93;0.80;;;13.20;99.90;;;;;;5053335;28;20236;-60
2024/01/03 09:22:37;;;;;;;2.30;1.00;;;13.20;99.90;;;;;;5052723;28;20221;-59
2024/01/03 09:25:04;;;;;;;1.73;0.53;;;13.20;99.90;;;;;;5052988;28;20237;-57
2024/01/03 09:27:32;;;;;;;3.50;1.00;;;13.30;99.90;;;;;;5053611;28;20205;-57
2024/01/03 09:29:59;;;;;;;3.97;1.10;;;13.30;99.90;;;;;;5052898;28;20216;-58
2024/01/03 09:32:27;;;;;;;1.30;0.60;;;13.40;99.90;;;;;;5052546;28;20710;-58
2024/01/03 09:34:54;;;;;;;3.33;0.80;;;13.60;99.90;;;;;;5052716;28;20234;-58
2024/01/03 09:37:20;;;;;;;1.23;0.73;;;13.60;99.90;;;;;;5052953;28;20233;-58
2024/01/03 09:39:47;;;;;;;2.47;0.93;;;13.70;99.90;;;;;;5052827;28;20232;-58
2024/01/03 09:42:14;;;;;;;2.37;1.00;;;13.70;99.90;;;;;;5052460;28;20217;-59
2024/01/03 09:44:42;;;;;;;2.13;0.60;;;13.80;99.90;;;;;;5052891;28;20287;-59
2024/01/03 09:47:09;;;;;;;4.90;2.50;;;13.80;99.90;;;;;;5052849;28;20205;-59
2024/01/03 09:49:38;;;;;;;2.63;1.00;;;13.70;99.90;;;;;;5052660;28;20202;-59
2024/01/03 09:52:09;;;;;;;2.27;0.70;;;13.70;99.90;;;;;;5052402;28;20740;-59
2024/01/03 09:54:36;;;;;;;3.40;1.83;;;13.70;99.90;;;;;;5052494;28;20251;-59
2024/01/03 09:57:02;;;;;;;3.93;0.80;;;13.60;99.90;;;;;;5052751;28;20232;-59
2024/01/03 09:59:29;;;;;;;2.37;0.70;;;13.40;99.90;;;;;;5052788;28;20201;-59
2024/01/03 10:01:58;;;;;;;1.53;0.60;;;13.30;99.90;;;;;;5052660;28;20225;-59
2024/01/03 10:04:24;;;;;;;2.67;1.20;;;13.40;99.90;;;;;;5036541;28;20241;-59
2024/01/03 10:06:53;;;;;;;1.27;0.50;;;13.40;99.90;;;;;;5052570;28;20314;-59
2024/01/03 10:09:20;;;;;;;1.80;0.70;;;13.50;99.90;;;;;;5052573;28;20602;-58
2024/01/03 10:11:51;;;;;;;2.23;1.20;;;13.50;99.90;;;;;;5052600;28;20197;-58
2024/01/03 10:14:19;;;;;;;0.67;0.50;;;13.80;99.90;;;;;;5052382;28;20232;-59
2024/01/03 10:16:47;;;;;;;2.60;1.13;;;13.90;99.90;;;;;;5052722;28;20211;-59
2024/01/03 10:19:15;;;;;;;1.57;1.00;;;13.90;99.90;;;;;;5052126;28;20210;-59
2024/01/03 10:21:48;;;;;;;2.77;0.80;;;13.80;99.90;;;;;;5051964;28;20225;-59
2024/01/03 10:24:17;;;;;;;2.13;0.60;;;13.70;99.90;;;;;;5051880;28;20233;-59
2024/01/03 10:26:45;;;;;;;1.83;0.63;;;13.80;99.90;;;;;;5066373;22;20241;-55
2024/01/03 10:29:13;;;;;;;1.83;0.73;;;13.80;99.90;;;;;;5041362;28;20316;-54
2024/01/03 10:31:40;;;;;;;3.40;0.80;;;13.70;99.90;;;;;;5043668;28;20217;-54
2024/01/03 10:34:08;;;;;;;4.37;1.00;;;13.70;99.90;;;;;;5042168;28;20201;-56
2024/01/03 10:36:38;;;;;;;3.37;1.20;;;13.80;99.90;;;;;;5049071;28;20229;-54
2024/01/03 10:39:05;;;;;;;4.00;1.10;;;13.70;99.90;;;;;;5051621;28;20600;-55
2024/01/03 10:41:34;;;;;;;2.73;0.87;;;13.70;99.90;;;;;;5051427;28;20217;-54
2024/01/03 10:44:01;;;;;;;1.80;0.80;;;13.80;99.90;;;;;;5051322;28;20213;-55
2024/01/03 10:46:29;;;;;;;2.70;1.13;;;13.80;99.90;;;;;;5051403;28;20714;-56
2024/01/03 10:48:56;;;;;;;1.77;0.80;;;13.70;99.90;;;;;;5051407;28;20675;-55
2024/01/03 10:51:24;;;;;;;0.73;0.30;;;13.70;99.90;;;;;;5051671;28;20197;-56
2024/01/03 10:53:53;;;;;;;2.70;0.40;;;13.70;99.90;;;;;;5051408;28;20210;-53
2024/01/03 10:56:20;;;;;;;4.17;1.17;;;13.80;99.90;;;;;;5051380;28;20229;-55
2024/01/03 10:58:49;;;;;;;3.87;1.60;;;13.70;99.90;;;;;;5051379;28;20255;-56
2024/01/03 11:01:20;;;;;;;3.20;2.43;;;13.60;99.90;;;;;;5050998;28;20332;-54
2024/01/03 11:03:57;;;;;;;8.10;6.47;;;13.60;99.90;;;;;;5051423;28;20206;-55
2024/01/03 11:06:30;;;;;;;15.73;9.77;;;13.40;99.90;;;;;;5051030;28;20279;-55
2024/01/03 11:08:58;;;;;;;5.77;3.57;;;13.20;99.90;;;;;;5048388;28;20239;-56
2024/01/03 11:11:32;;;;;;;3.57;2.57;;;13.20;99.90;;;;;;5050807;28;20280;-59
2024/01/03 11:14:00;;;;;;;3.63;2.27;;;13.30;99.90;;;;;;5050957;28;20637;-60
2024/01/03 11:16:36;;;;;;;2.67;1.90;;;13.30;99.90;;;;;;5035026;28;20248;-59
2024/01/03 11:19:04;;;;;;;2.43;1.20;;;13.20;99.90;;;;;;5042956;28;20704;-59
2024/01/03 11:21:46;;;;;;;2.53;1.30;;;13.20;99.90;;;;;;5050810;28;20229;-59
2024/01/03 11:24:58;;;;;;;3.20;1.00;;;13.40;99.90;;;;;;5050393;28;20833;-59
2024/01/03 11:27:25;;;;;;;2.17;0.83;;;13.60;99.90;;;;;;5050661;28;20201;-59
2024/01/03 11:29:54;;;;;;;3.80;1.10;;;13.60;99.90;;;;;;5050771;28;20205;-58
2024/01/03 11:32:45;;;;;;;1.77;0.90;;;13.70;99.90;;;;;;5050429;28;20205;-60
2024/01/03 11:35:12;;;;;;;2.80;0.87;;;13.80;99.90;;;;;;5030658;28;20233;-59
2024/01/03 11:37:39;;;;;;;5.53;0.70;;;13.80;99.90;;;;;;5050977;28;20198;-59
2024/01/03 11:40:08;;;;;;;1.00;0.60;;;13.80;99.90;;;;;;5049507;28;20206;-58
2024/01/03 11:42:37;;;;;;;1.50;1.07;;;13.80;99.90;;;;;;5050294;28;20699;-59
2024/01/03 11:45:08;;;;;;;1.10;0.60;;;13.90;99.90;;;;;;5050602;28;20230;-56
2024/01/03 11:47:35;;;;;;;2.40;0.70;;;14.10;99.90;;;;;;5050686;28;20580;-55
2024/01/03 11:50:04;;;;;;;2.60;0.97;;;14.30;99.90;;;;;;5050720;28;20205;-58
2024/01/03 11:52:34;;;;;;;2.00;1.20;;;14.50;99.90;;;;;;5050478;28;20209;-58
2024/01/03 11:55:10;;;;;;;10.70;8.00;;;14.80;99.90;;;;;;5050787;28;20340;-59
2024/01/03 11:57:42;;;;;;;1.13;0.80;;;15.00;99.90;;;;;;5037239;28;20263;-59
2024/01/03 12:00:11;;;;;;;2.00;0.70;;;15.20;99.90;;;;;;5050668;28;20287;-59
2024/01/03 12:02:38;;;;;;;1.33;0.50;;;15.40;99.90;;;;;;5050377;28;20221;-58
2024/01/03 12:05:06;;;;;;;2.07;0.80;;;15.40;99.90;;;;;;5050275;28;20225;-59
2024/01/03 12:07:35;;;;;;;5.07;1.23;;;15.30;99.90;;;;;;5050853;28;20201;-59
2024/01/03 12:10:03;;;;;;;3.07;1.60;;;15.00;99.90;;;;;;5050575;28;20259;-55
2024/01/03 12:12:30;;;;;;;2.85;0.70;;;14.90;99.90;;;;;;5034628;28;20612;-55
2024/01/03 12:14:57;;;;;;;3.00;0.80;;;14.70;99.90;;;;;;5050364;28;20228;-55
2024/01/03 12:17:26;;;;;;;2.03;0.80;;;14.50;99.90;;;;;;5050610;28;20198;-56
2024/01/03 12:19:53;;;;;;;2.03;0.70;;;14.50;99.90;;;;;;5050628;28;20292;-55
2024/01/03 12:22:23;;;;;;;1.93;1.00;;;14.60;99.90;;;;;;5050356;28;20224;-56
2024/01/03 12:24:50;;;;;;;6.67;3.47;;;14.70;99.90;;;;;;5050257;28;20292;-56
2024/01/03 12:27:23;;;;;;;4.30;1.70;;;14.60;99.90;;;;;;5050461;28;20275;-56
2024/01/03 12:29:50;;;;;;;3.47;1.20;;;14.60;99.90;;;;;;5050967;28;20209;-55
2024/01/03 12:32:18;;;;;;;2.73;1.50;;;14.40;99.90;;;;;;5050250;28;20534;-56
2024/01/03 12:34:47;;;;;;;4.60;0.80;;;14.40;99.90;;;;;;5050037;28;20210;-56
2024/01/03 12:37:14;;;;;;;2.57;0.83;;;14.40;99.90;;;;;;5050215;28;20585;-56
2024/01/03 12:39:41;;;;;;;1.53;0.80;;;14.30;99.90;;;;;;5050408;28;20201;-56
2024/01/03 12:42:10;;;;;;;3.07;0.97;;;14.40;99.90;;;;;;5049764;28;20222;-56
2024/01/03 12:44:37;;;;;;;1.67;0.70;;;14.40;99.90;;;;;;5050015;28;20263;-55
2024/01/03 12:47:04;;;;;;;12.17;7.97;;;14.40;99.90;;;;;;5050136;28;20213;-54
2024/01/03 12:49:31;;;;;;;1.90;0.87;;;14.50;99.90;;;;;;5050211;28;20202;-56